sensor_id;sensor_type;location;lat;lon;timestamp;temperature;humidity
843;DHT22;407;48.884;9.126;2022-08-23T00:01:07;18.70;99.90
843;DHT22;407;48.884;9.126;2022-08-23T00:03:32;18.60;99.90
843;DHT22;407;48.884;9.126;2022-08-23T00:05:58;18.50;1.00
843;DHT22;407;48.884;9.126;2022-08-23T00:08:24;18.40;1.00
843;DHT22;407;48.884;9.126;2022-08-23T00:10:49;18.30;1.00
843;DHT22;407;48.884;9.126;2022-08-23T00:13:15;18.30;1.00
843;DHT22;407;48.884;9.126;2022-08-23T00:15:41;18.20;99.90
843;DHT22;407;48.884;9.126;2022-08-23T00:18:07;18.10;99.90
843;DHT22;407;48.884;9.126;2022-08-23T00:20:33;18.00;1.00
843;DHT22;407;48.884;9.126;2022-08-23T00:22:58;17.90;1.00
843;DHT22;407;48.884;9.126;2022-08-23T00:25:24;17.80;99.90
843;DHT22;407;48.884;9.126;2022-08-23T00:27:50;17.80;23.10
843;DHT22;407;48.884;9.126;2022-08-23T00:30:15;17.80;1.00
843;DHT22;407;48.884;9.126;2022-08-23T00:32:42;17.90;99.90
843;DHT22;407;48.884;9.126;2022-08-23T00:35:09;17.90;99.90
843;DHT22;407;48.884;9.126;2022-08-23T00:37:36;17.90;99.90
843;DHT22;407;48.884;9.126;2022-08-23T00:40:03;17.90;99.90
843;DHT22;407;48.884;9.126;2022-08-23T00:49:08;17.70;1.00
843;DHT22;407;48.884;9.126;2022-08-23T00:51:40;17.70;1.00
843;DHT22;407;48.884;9.126;2022-08-23T00:54:08;17.70;1.00
843;DHT22;407;48.884;9.126;2022-08-23T00:56:36;17.60;1.00
843;DHT22;407;48.884;9.126;2022-08-23T00:59:04;17.60;94.30
843;DHT22;407;48.884;9.126;2022-08-23T01:01:30;17.50;99.90
843;DHT22;407;48.884;9.126;2022-08-23T01:03:57;17.30;1.00
843;DHT22;407;48.884;9.126;2022-08-23T01:07:04;17.30;1.00
843;DHT22;407;48.884;9.126;2022-08-23T01:09:22;17.20;1.00
843;DHT22;407;48.884;9.126;2022-08-23T01:12:02;17.30;99.90
843;DHT22;407;48.884;9.126;2022-08-23T01:14:38;17.40;99.90
843;DHT22;407;48.884;9.126;2022-08-23T01:17:09;17.50;99.90
843;DHT22;407;48.884;9.126;2022-08-23T01:19:40;17.40;99.90
843;DHT22;407;48.884;9.126;2022-08-23T01:22:31;17.20;1.00
843;DHT22;407;48.884;9.126;2022-08-23T01:25:00;17.20;1.00
843;DHT22;407;48.884;9.126;2022-08-23T01:27:27;17.20;1.00
843;DHT22;407;48.884;9.126;2022-08-23T01:29:52;17.30;99.90
843;DHT22;407;48.884;9.126;2022-08-23T01:32:18;17.30;99.90
843;DHT22;407;48.884;9.126;2022-08-23T01:34:44;17.30;99.90
843;DHT22;407;48.884;9.126;2022-08-23T01:37:10;17.30;99.90
843;DHT22;407;48.884;9.126;2022-08-23T01:39:36;17.30;99.90
843;DHT22;407;48.884;9.126;2022-08-23T01:42:03;17.40;99.90
843;DHT22;407;48.884;9.126;2022-08-23T01:44:29;17.30;99.90
843;DHT22;407;48.884;9.126;2022-08-23T01:46:54;17.30;1.00
843;DHT22;407;48.884;9.126;2022-08-23T01:49:20;17.30;1.00
843;DHT22;407;48.884;9.126;2022-08-23T01:51:46;17.30;1.00
843;DHT22;407;48.884;9.126;2022-08-23T01:54:12;17.40;1.00
843;DHT22;407;48.884;9.126;2022-08-23T01:56:38;17.30;1.00
843;DHT22;407;48.884;9.126;2022-08-23T01:59:08;17.20;17.30
843;DHT22;407;48.884;9.126;2022-08-23T02:01:34;17.00;1.00
843;DHT22;407;48.884;9.126;2022-08-23T02:04:00;16.90;99.90
843;DHT22;407;48.884;9.126;2022-08-23T02:06:26;16.90;99.90
843;DHT22;407;48.884;9.126;2022-08-23T02:08:52;16.80;99.90
843;DHT22;407;48.884;9.126;2022-08-23T02:11:33;16.90;70.50
843;DHT22;407;48.884;9.126;2022-08-23T02:14:02;17.00;1.00
843;DHT22;407;48.884;9.126;2022-08-23T02:16:31;17.00;99.90
843;DHT22;407;48.884;9.126;2022-08-23T02:19:04;17.00;99.90
843;DHT22;407;48.884;9.126;2022-08-23T02:21:30;17.00;99.90
843;DHT22;407;48.884;9.126;2022-08-23T02:23:58;17.10;99.90
843;DHT22;407;48.884;9.126;2022-08-23T02:26:23;17.10;1.00
843;DHT22;407;48.884;9.126;2022-08-23T02:28:50;17.10;1.00
843;DHT22;407;48.884;9.126;2022-08-23T02:31:16;17.20;1.00
843;DHT22;407;48.884;9.126;2022-08-23T02:33:42;17.10;1.00
843;DHT22;407;48.884;9.126;2022-08-23T02:36:08;17.10;1.00
843;DHT22;407;48.884;9.126;2022-08-23T02:38:34;17.00;99.90
843;DHT22;407;48.884;9.126;2022-08-23T02:40:59;17.10;99.90
843;DHT22;407;48.884;9.126;2022-08-23T02:43:25;17.10;24.10
843;DHT22;407;48.884;9.126;2022-08-23T02:45:52;17.20;1.00
843;DHT22;407;48.884;9.126;2022-08-23T02:48:17;17.20;1.00
843;DHT22;407;48.884;9.126;2022-08-23T02:50:43;17.10;21.90
843;DHT22;407;48.884;9.126;2022-08-23T02:53:09;17.00;99.90
843;DHT22;407;48.884;9.126;2022-08-23T02:55:34;16.90;99.90
843;DHT22;407;48.884;9.126;2022-08-23T02:58:00;16.90;1.00
843;DHT22;407;48.884;9.126;2022-08-23T03:00:26;16.90;8.00
843;DHT22;407;48.884;9.126;2022-08-23T03:02:51;16.90;1.00
843;DHT22;407;48.884;9.126;2022-08-23T03:05:17;17.00;1.00
843;DHT22;407;48.884;9.126;2022-08-23T03:07:44;17.00;1.00
843;DHT22;407;48.884;9.126;2022-08-23T03:10:10;17.10;99.90
843;DHT22;407;48.884;9.126;2022-08-23T03:12:36;17.00;1.00
843;DHT22;407;48.884;9.126;2022-08-23T03:15:03;16.90;99.90
843;DHT22;407;48.884;9.126;2022-08-23T03:17:29;16.90;99.90
843;DHT22;407;48.884;9.126;2022-08-23T03:19:55;16.90;99.90
843;DHT22;407;48.884;9.126;2022-08-23T03:22:20;16.90;99.90
843;DHT22;407;48.884;9.126;2022-08-23T03:24:47;16.80;1.00
843;DHT22;407;48.884;9.126;2022-08-23T03:27:13;16.80;1.00
843;DHT22;407;48.884;9.126;2022-08-23T03:29:39;16.80;99.90
843;DHT22;407;48.884;9.126;2022-08-23T03:32:06;16.80;1.00
843;DHT22;407;48.884;9.126;2022-08-23T03:34:32;16.70;48.90
843;DHT22;407;48.884;9.126;2022-08-23T03:36:58;16.70;99.90
843;DHT22;407;48.884;9.126;2022-08-23T03:39:24;16.70;1.00
843;DHT22;407;48.884;9.126;2022-08-23T03:41:50;16.70;1.00
843;DHT22;407;48.884;9.126;2022-08-23T03:44:16;16.70;99.90
843;DHT22;407;48.884;9.126;2022-08-23T03:46:41;16.70;1.00
843;DHT22;407;48.884;9.126;2022-08-23T03:49:07;16.70;1.00
843;DHT22;407;48.884;9.126;2022-08-23T03:51:33;16.60;99.90
843;DHT22;407;48.884;9.126;2022-08-23T03:54:00;16.50;99.90
843;DHT22;407;48.884;9.126;2022-08-23T03:56:30;16.40;99.90
843;DHT22;407;48.884;9.126;2022-08-23T03:58:58;16.40;99.90
843;DHT22;407;48.884;9.126;2022-08-23T04:01:24;16.40;1.00
843;DHT22;407;48.884;9.126;2022-08-23T04:03:50;16.40;99.90
843;DHT22;407;48.884;9.126;2022-08-23T04:06:16;16.40;99.90
843;DHT22;407;48.884;9.126;2022-08-23T04:08:44;16.40;99.90
843;DHT22;407;48.884;9.126;2022-08-23T04:11:10;16.50;99.90
843;DHT22;407;48.884;9.126;2022-08-23T04:13:38;16.50;99.90
843;DHT22;407;48.884;9.126;2022-08-23T04:16:05;16.40;99.90
843;DHT22;407;48.884;9.126;2022-08-23T04:18:32;16.30;1.00
843;DHT22;407;48.884;9.126;2022-08-23T04:21:01;16.40;1.00
843;DHT22;407;48.884;9.126;2022-08-23T04:23:27;16.40;1.00
843;DHT22;407;48.884;9.126;2022-08-23T04:25:56;16.30;32.90
843;DHT22;407;48.884;9.126;2022-08-23T04:28:22;16.10;99.90
843;DHT22;407;48.884;9.126;2022-08-23T04:30:48;16.20;99.90
843;DHT22;407;48.884;9.126;2022-08-23T04:33:15;16.10;99.90
843;DHT22;407;48.884;9.126;2022-08-23T04:35:40;16.10;99.90
843;DHT22;407;48.884;9.126;2022-08-23T04:38:06;16.10;99.90
843;DHT22;407;48.884;9.126;2022-08-23T04:40:32;16.10;99.90
843;DHT22;407;48.884;9.126;2022-08-23T04:43:16;16.20;99.90
843;DHT22;407;48.884;9.126;2022-08-23T04:45:42;16.20;99.90
843;DHT22;407;48.884;9.126;2022-08-23T04:48:08;16.30;99.90
843;DHT22;407;48.884;9.126;2022-08-23T04:50:35;16.30;96.50
843;DHT22;407;48.884;9.126;2022-08-23T04:53:01;16.40;1.00
843;DHT22;407;48.884;9.126;2022-08-23T04:55:27;16.50;1.00
843;DHT22;407;48.884;9.126;2022-08-23T04:57:53;16.60;99.90
843;DHT22;407;48.884;9.126;2022-08-23T05:00:19;16.70;42.20
843;DHT22;407;48.884;9.126;2022-08-23T05:02:45;16.80;1.00
843;DHT22;407;48.884;9.126;2022-08-23T05:05:11;16.90;99.90
843;DHT22;407;48.884;9.126;2022-08-23T05:07:38;17.10;1.00
843;DHT22;407;48.884;9.126;2022-08-23T05:10:06;17.20;99.90
843;DHT22;407;48.884;9.126;2022-08-23T05:12:32;17.20;35.50
843;DHT22;407;48.884;9.126;2022-08-23T05:14:58;17.30;1.00
843;DHT22;407;48.884;9.126;2022-08-23T05:17:24;17.30;19.20
843;DHT22;407;48.884;9.126;2022-08-23T05:19:50;17.30;38.30
843;DHT22;407;48.884;9.126;2022-08-23T05:22:15;17.40;90.40
843;DHT22;407;48.884;9.126;2022-08-23T05:24:41;17.40;80.00
843;DHT22;407;48.884;9.126;2022-08-23T05:27:07;17.50;1.00
843;DHT22;407;48.884;9.126;2022-08-23T05:29:34;17.60;1.00
843;DHT22;407;48.884;9.126;2022-08-23T05:32:00;17.70;1.00
843;DHT22;407;48.884;9.126;2022-08-23T05:34:26;17.70;1.00
843;DHT22;407;48.884;9.126;2022-08-23T05:36:52;17.90;99.90
843;DHT22;407;48.884;9.126;2022-08-23T05:39:18;18.00;1.00
843;DHT22;407;48.884;9.126;2022-08-23T05:41:44;18.10;1.00
843;DHT22;407;48.884;9.126;2022-08-23T05:44:10;18.30;99.90
843;DHT22;407;48.884;9.126;2022-08-23T05:46:37;18.40;49.30
843;DHT22;407;48.884;9.126;2022-08-23T05:49:03;18.50;59.90
843;DHT22;407;48.884;9.126;2022-08-23T05:51:32;18.80;1.00
843;DHT22;407;48.884;9.126;2022-08-23T05:54:02;19.10;99.90
843;DHT22;407;48.884;9.126;2022-08-23T05:56:40;20.00;1.00
843;DHT22;407;48.884;9.126;2022-08-23T06:01:34;22.80;1.00
843;DHT22;407;48.884;9.126;2022-08-23T06:04:09;23.90;99.90
843;DHT22;407;48.884;9.126;2022-08-23T06:06:36;25.30;99.90
843;DHT22;407;48.884;9.126;2022-08-23T06:09:03;26.00;99.90
843;DHT22;407;48.884;9.126;2022-08-23T06:11:29;26.70;99.90
843;DHT22;407;48.884;9.126;2022-08-23T06:13:57;27.20;99.90
843;DHT22;407;48.884;9.126;2022-08-23T06:16:31;28.00;99.90
843;DHT22;407;48.884;9.126;2022-08-23T06:18:58;28.70;99.90
843;DHT22;407;48.884;9.126;2022-08-23T06:21:26;29.50;99.90
843;DHT22;407;48.884;9.126;2022-08-23T06:23:52;30.10;99.90
843;DHT22;407;48.884;9.126;2022-08-23T06:26:21;30.70;99.90
843;DHT22;407;48.884;9.126;2022-08-23T06:28:49;30.20;99.90
843;DHT22;407;48.884;9.126;2022-08-23T06:31:15;30.90;99.90
843;DHT22;407;48.884;9.126;2022-08-23T06:34:02;31.70;99.90
843;DHT22;407;48.884;9.126;2022-08-23T06:36:28;31.90;99.90
843;DHT22;407;48.884;9.126;2022-08-23T06:38:54;31.90;99.90
843;DHT22;407;48.884;9.126;2022-08-23T06:41:20;31.70;99.90
843;DHT22;407;48.884;9.126;2022-08-23T06:43:45;31.60;99.90
843;DHT22;407;48.884;9.126;2022-08-23T06:46:15;31.50;99.90
843;DHT22;407;48.884;9.126;2022-08-23T06:48:43;31.70;99.90
843;DHT22;407;48.884;9.126;2022-08-23T06:53:59;32.10;99.90
843;DHT22;407;48.884;9.126;2022-08-23T06:56:26;32.10;99.90
843;DHT22;407;48.884;9.126;2022-08-23T06:58:53;32.10;99.90
843;DHT22;407;48.884;9.126;2022-08-23T07:04:04;32.50;99.90
843;DHT22;407;48.884;9.126;2022-08-23T07:06:31;32.60;99.90
843;DHT22;407;48.884;9.126;2022-08-23T07:08:57;32.70;99.90
843;DHT22;407;48.884;9.126;2022-08-23T07:11:23;33.10;99.90
843;DHT22;407;48.884;9.126;2022-08-23T07:13:50;33.10;99.90
843;DHT22;407;48.884;9.126;2022-08-23T07:16:17;32.90;99.90
843;DHT22;407;48.884;9.126;2022-08-23T07:18:44;32.80;99.90
843;DHT22;407;48.884;9.126;2022-08-23T07:21:11;32.90;99.90
843;DHT22;407;48.884;9.126;2022-08-23T07:23:37;33.30;99.90
843;DHT22;407;48.884;9.126;2022-08-23T07:26:07;33.70;99.90
843;DHT22;407;48.884;9.126;2022-08-23T07:28:33;33.20;99.90
843;DHT22;407;48.884;9.126;2022-08-23T07:31:10;32.90;99.90
843;DHT22;407;48.884;9.126;2022-08-23T07:33:38;33.70;99.90
843;DHT22;407;48.884;9.126;2022-08-23T07:36:05;34.20;99.90
843;DHT22;407;48.884;9.126;2022-08-23T07:38:31;35.20;99.90
843;DHT22;407;48.884;9.126;2022-08-23T07:40:57;35.10;99.90
843;DHT22;407;48.884;9.126;2022-08-23T07:43:23;35.10;99.90
843;DHT22;407;48.884;9.126;2022-08-23T07:45:48;35.30;99.90
843;DHT22;407;48.884;9.126;2022-08-23T07:48:15;35.90;99.90
843;DHT22;407;48.884;9.126;2022-08-23T07:50:40;36.50;99.90
843;DHT22;407;48.884;9.126;2022-08-23T07:53:07;36.90;99.90
843;DHT22;407;48.884;9.126;2022-08-23T07:55:32;37.60;99.90
843;DHT22;407;48.884;9.126;2022-08-23T07:57:58;36.80;99.90
843;DHT22;407;48.884;9.126;2022-08-23T08:00:25;36.00;99.90
843;DHT22;407;48.884;9.126;2022-08-23T08:02:51;36.10;99.90
843;DHT22;407;48.884;9.126;2022-08-23T08:05:16;36.70;99.90
843;DHT22;407;48.884;9.126;2022-08-23T08:07:42;36.50;99.90
843;DHT22;407;48.884;9.126;2022-08-23T08:10:08;35.30;99.90
843;DHT22;407;48.884;9.126;2022-08-23T08:12:34;35.70;99.90
843;DHT22;407;48.884;9.126;2022-08-23T08:15:00;35.50;99.90
843;DHT22;407;48.884;9.126;2022-08-23T08:17:26;36.60;99.90
843;DHT22;407;48.884;9.126;2022-08-23T08:19:51;37.90;99.90
843;DHT22;407;48.884;9.126;2022-08-23T08:22:17;38.10;99.90
843;DHT22;407;48.884;9.126;2022-08-23T08:24:43;37.60;99.90
843;DHT22;407;48.884;9.126;2022-08-23T08:27:09;38.00;99.90
843;DHT22;407;48.884;9.126;2022-08-23T08:29:34;38.30;99.90
843;DHT22;407;48.884;9.126;2022-08-23T08:32:00;38.70;99.90
843;DHT22;407;48.884;9.126;2022-08-23T08:34:26;38.90;99.90
843;DHT22;407;48.884;9.126;2022-08-23T08:36:54;40.10;99.90
843;DHT22;407;48.884;9.126;2022-08-23T08:39:26;40.50;99.90
843;DHT22;407;48.884;9.126;2022-08-23T08:47:18;40.00;99.90
843;DHT22;407;48.884;9.126;2022-08-23T08:50:02;38.90;99.90
843;DHT22;407;48.884;9.126;2022-08-23T08:52:50;39.00;99.90
843;DHT22;407;48.884;9.126;2022-08-23T08:55:24;40.00;99.90
843;DHT22;407;48.884;9.126;2022-08-23T08:57:51;40.50;99.90
843;DHT22;407;48.884;9.126;2022-08-23T09:00:23;39.50;99.90
843;DHT22;407;48.884;9.126;2022-08-23T09:02:50;39.70;99.90
843;DHT22;407;48.884;9.126;2022-08-23T09:05:20;39.10;99.90
843;DHT22;407;48.884;9.126;2022-08-23T09:08:10;39.20;99.90
843;DHT22;407;48.884;9.126;2022-08-23T09:18:50;39.90;99.90
843;DHT22;407;48.884;9.126;2022-08-23T09:21:16;41.00;99.90
843;DHT22;407;48.884;9.126;2022-08-23T09:23:47;41.50;99.90
843;DHT22;407;48.884;9.126;2022-08-23T09:26:25;41.20;99.90
843;DHT22;407;48.884;9.126;2022-08-23T09:28:59;41.20;99.90
843;DHT22;407;48.884;9.126;2022-08-23T09:31:38;41.00;99.90
843;DHT22;407;48.884;9.126;2022-08-23T09:34:05;40.10;99.90
843;DHT22;407;48.884;9.126;2022-08-23T09:36:36;40.30;99.90
843;DHT22;407;48.884;9.126;2022-08-23T09:39:08;40.60;99.90
843;DHT22;407;48.884;9.126;2022-08-23T09:41:48;40.80;99.90
843;DHT22;407;48.884;9.126;2022-08-23T09:44:33;41.30;99.90
843;DHT22;407;48.884;9.126;2022-08-23T09:47:12;41.60;99.90
843;DHT22;407;48.884;9.126;2022-08-23T09:49:40;42.30;99.90
843;DHT22;407;48.884;9.126;2022-08-23T09:52:34;41.40;99.90
843;DHT22;407;48.884;9.126;2022-08-23T09:55:07;41.90;99.90
843;DHT22;407;48.884;9.126;2022-08-23T09:57:34;41.70;99.90
843;DHT22;407;48.884;9.126;2022-08-23T10:00:21;41.60;99.90
843;DHT22;407;48.884;9.126;2022-08-23T10:02:48;40.80;99.90
843;DHT22;407;48.884;9.126;2022-08-23T10:07:42;39.20;99.90
843;DHT22;407;48.884;9.126;2022-08-23T10:10:21;39.30;99.90
843;DHT22;407;48.884;9.126;2022-08-23T10:12:49;39.60;99.90
843;DHT22;407;48.884;9.126;2022-08-23T10:15:15;39.50;99.90
843;DHT22;407;48.884;9.126;2022-08-23T10:17:57;37.30;99.90
843;DHT22;407;48.884;9.126;2022-08-23T10:20:35;37.10;99.90
843;DHT22;407;48.884;9.126;2022-08-23T10:25:53;37.60;99.90
843;DHT22;407;48.884;9.126;2022-08-23T10:39:23;37.60;99.90
843;DHT22;407;48.884;9.126;2022-08-23T10:42:22;37.60;99.90
843;DHT22;407;48.884;9.126;2022-08-23T10:44:58;36.20;99.90
843;DHT22;407;48.884;9.126;2022-08-23T10:47:34;35.80;99.90
843;DHT22;407;48.884;9.126;2022-08-23T10:50:09;35.30;99.90
843;DHT22;407;48.884;9.126;2022-08-23T10:52:46;35.00;99.90
843;DHT22;407;48.884;9.126;2022-08-23T10:55:20;34.30;99.90
843;DHT22;407;48.884;9.126;2022-08-23T10:58:02;34.10;99.90
843;DHT22;407;48.884;9.126;2022-08-23T11:00:31;34.10;99.90
843;DHT22;407;48.884;9.126;2022-08-23T11:11:46;33.50;99.90
843;DHT22;407;48.884;9.126;2022-08-23T11:14:32;33.30;99.90
843;DHT22;407;48.884;9.126;2022-08-23T11:17:06;33.20;99.90
843;DHT22;407;48.884;9.126;2022-08-23T11:19:57;33.10;99.90
843;DHT22;407;48.884;9.126;2022-08-23T11:22:32;33.10;99.90
843;DHT22;407;48.884;9.126;2022-08-23T11:25:01;33.00;99.90
843;DHT22;407;48.884;9.126;2022-08-23T11:27:39;33.00;99.90
843;DHT22;407;48.884;9.126;2022-08-23T11:30:47;33.10;99.90
843;DHT22;407;48.884;9.126;2022-08-23T11:38:11;33.60;99.90
843;DHT22;407;48.884;9.126;2022-08-23T11:45:52;33.90;99.90
843;DHT22;407;48.884;9.126;2022-08-23T11:56:10;33.50;99.90
843;DHT22;407;48.884;9.126;2022-08-23T12:02:31;32.80;99.90
843;DHT22;407;48.884;9.126;2022-08-23T12:05:00;32.50;99.90
843;DHT22;407;48.884;9.126;2022-08-23T12:16:46;33.40;99.90
843;DHT22;407;48.884;9.126;2022-08-23T12:18:56;33.10;99.90
843;DHT22;407;48.884;9.126;2022-08-23T12:21:43;33.10;99.90
843;DHT22;407;48.884;9.126;2022-08-23T12:24:29;32.90;99.90
843;DHT22;407;48.884;9.126;2022-08-23T12:27:27;32.50;99.90
843;DHT22;407;48.884;9.126;2022-08-23T12:30:20;32.80;99.90
843;DHT22;407;48.884;9.126;2022-08-23T12:35:48;32.70;99.90
843;DHT22;407;48.884;9.126;2022-08-23T12:38:57;32.70;99.90
843;DHT22;407;48.884;9.126;2022-08-23T12:41:30;32.50;99.90
843;DHT22;407;48.884;9.126;2022-08-23T12:44:06;32.70;99.90
843;DHT22;407;48.884;9.126;2022-08-23T12:46:42;32.80;99.90
843;DHT22;407;48.884;9.126;2022-08-23T12:49:21;32.70;99.90
843;DHT22;407;48.884;9.126;2022-08-23T12:51:48;32.60;99.90
843;DHT22;407;48.884;9.126;2022-08-23T12:54:18;32.90;99.90
843;DHT22;407;48.884;9.126;2022-08-23T12:56:50;33.40;99.90
843;DHT22;407;48.884;9.126;2022-08-23T13:02:04;33.80;99.90
843;DHT22;407;48.884;9.126;2022-08-23T13:04:31;33.30;99.90
843;DHT22;407;48.884;9.126;2022-08-23T13:07:04;33.40;99.90
843;DHT22;407;48.884;9.126;2022-08-23T13:09:37;33.40;99.90
843;DHT22;407;48.884;9.126;2022-08-23T13:12:05;33.20;99.90
843;DHT22;407;48.884;9.126;2022-08-23T13:27:52;32.40;99.90
843;DHT22;407;48.884;9.126;2022-08-23T13:32:51;32.70;99.90
843;DHT22;407;48.884;9.126;2022-08-23T13:35:29;32.60;99.90
843;DHT22;407;48.884;9.126;2022-08-23T13:40:55;32.50;99.90
843;DHT22;407;48.884;9.126;2022-08-23T13:43:45;32.60;99.90
843;DHT22;407;48.884;9.126;2022-08-23T13:46:28;32.40;99.90
843;DHT22;407;48.884;9.126;2022-08-23T13:48:59;32.50;99.90
843;DHT22;407;48.884;9.126;2022-08-23T13:51:33;32.60;99.90
843;DHT22;407;48.884;9.126;2022-08-23T13:54:09;32.70;99.90
843;DHT22;407;48.884;9.126;2022-08-23T13:56:40;33.00;99.90
843;DHT22;407;48.884;9.126;2022-08-23T13:59:25;32.90;99.90
843;DHT22;407;48.884;9.126;2022-08-23T14:01:52;32.30;99.90
843;DHT22;407;48.884;9.126;2022-08-23T14:04:18;32.60;99.90
843;DHT22;407;48.884;9.126;2022-08-23T14:06:43;32.80;99.90
843;DHT22;407;48.884;9.126;2022-08-23T14:09:10;33.00;99.90
843;DHT22;407;48.884;9.126;2022-08-23T14:11:36;33.30;99.90
843;DHT22;407;48.884;9.126;2022-08-23T14:14:02;33.50;99.90
843;DHT22;407;48.884;9.126;2022-08-23T14:16:31;33.40;99.90
843;DHT22;407;48.884;9.126;2022-08-23T14:18:59;33.30;99.90
843;DHT22;407;48.884;9.126;2022-08-23T14:21:24;33.20;99.90
843;DHT22;407;48.884;9.126;2022-08-23T14:23:50;33.30;99.90
843;DHT22;407;48.884;9.126;2022-08-23T14:26:18;33.30;99.90
843;DHT22;407;48.884;9.126;2022-08-23T14:28:45;33.10;99.90
843;DHT22;407;48.884;9.126;2022-08-23T14:31:11;32.70;99.90
843;DHT22;407;48.884;9.126;2022-08-23T14:33:37;32.50;99.90
843;DHT22;407;48.884;9.126;2022-08-23T14:36:04;32.40;99.90
843;DHT22;407;48.884;9.126;2022-08-23T14:38:29;32.40;99.90
843;DHT22;407;48.884;9.126;2022-08-23T14:40:58;32.70;99.90
843;DHT22;407;48.884;9.126;2022-08-23T14:43:27;32.70;99.90
843;DHT22;407;48.884;9.126;2022-08-23T14:45:53;32.80;99.90
843;DHT22;407;48.884;9.126;2022-08-23T14:48:19;32.60;99.90
843;DHT22;407;48.884;9.126;2022-08-23T14:50:45;32.50;99.90
843;DHT22;407;48.884;9.126;2022-08-23T14:53:14;32.20;99.90
843;DHT22;407;48.884;9.126;2022-08-23T14:55:40;31.80;99.90
843;DHT22;407;48.884;9.126;2022-08-23T14:58:06;31.70;99.90
843;DHT22;407;48.884;9.126;2022-08-23T15:00:33;31.80;99.90
843;DHT22;407;48.884;9.126;2022-08-23T15:03:02;31.90;99.90
843;DHT22;407;48.884;9.126;2022-08-23T15:05:28;32.00;99.90
843;DHT22;407;48.884;9.126;2022-08-23T15:07:54;32.00;99.90
843;DHT22;407;48.884;9.126;2022-08-23T15:10:20;31.90;99.90
843;DHT22;407;48.884;9.126;2022-08-23T15:12:46;31.70;99.90
843;DHT22;407;48.884;9.126;2022-08-23T15:15:15;31.30;99.90
843;DHT22;407;48.884;9.126;2022-08-23T15:17:51;31.30;99.90
843;DHT22;407;48.884;9.126;2022-08-23T15:20:20;31.30;99.90
843;DHT22;407;48.884;9.126;2022-08-23T15:22:46;31.30;99.90
843;DHT22;407;48.884;9.126;2022-08-23T15:25:13;31.30;99.90
843;DHT22;407;48.884;9.126;2022-08-23T15:27:39;31.40;99.90
843;DHT22;407;48.884;9.126;2022-08-23T15:30:06;31.40;99.90
843;DHT22;407;48.884;9.126;2022-08-23T15:32:31;31.20;99.90
843;DHT22;407;48.884;9.126;2022-08-23T15:34:57;31.10;99.90
843;DHT22;407;48.884;9.126;2022-08-23T15:37:23;31.10;99.90
843;DHT22;407;48.884;9.126;2022-08-23T15:39:49;31.10;99.90
843;DHT22;407;48.884;9.126;2022-08-23T15:42:14;31.10;99.90
843;DHT22;407;48.884;9.126;2022-08-23T15:44:40;31.20;99.90
843;DHT22;407;48.884;9.126;2022-08-23T15:47:16;31.10;99.90
843;DHT22;407;48.884;9.126;2022-08-23T15:49:42;31.00;99.90
843;DHT22;407;48.884;9.126;2022-08-23T15:52:08;31.00;99.90
843;DHT22;407;48.884;9.126;2022-08-23T15:54:33;31.10;99.90
843;DHT22;407;48.884;9.126;2022-08-23T15:56:59;31.20;99.90
843;DHT22;407;48.884;9.126;2022-08-23T15:59:25;31.40;99.90
843;DHT22;407;48.884;9.126;2022-08-23T16:01:51;31.50;99.90
843;DHT22;407;48.884;9.126;2022-08-23T16:04:17;31.70;99.90
843;DHT22;407;48.884;9.126;2022-08-23T16:06:43;31.70;99.90
843;DHT22;407;48.884;9.126;2022-08-23T16:09:20;31.70;99.90
843;DHT22;407;48.884;9.126;2022-08-23T16:11:47;31.70;99.90
843;DHT22;407;48.884;9.126;2022-08-23T16:14:13;31.80;99.90
843;DHT22;407;48.884;9.126;2022-08-23T16:16:39;31.80;99.90
843;DHT22;407;48.884;9.126;2022-08-23T16:19:06;31.60;99.90
843;DHT22;407;48.884;9.126;2022-08-23T16:21:32;31.50;99.90
843;DHT22;407;48.884;9.126;2022-08-23T16:23:58;31.50;99.90
843;DHT22;407;48.884;9.126;2022-08-23T16:26:31;31.40;99.90
843;DHT22;407;48.884;9.126;2022-08-23T16:28:58;31.40;99.90
843;DHT22;407;48.884;9.126;2022-08-23T16:31:24;31.40;99.90
843;DHT22;407;48.884;9.126;2022-08-23T16:33:56;31.40;99.90
843;DHT22;407;48.884;9.126;2022-08-23T16:36:22;31.40;99.90
843;DHT22;407;48.884;9.126;2022-08-23T16:38:48;31.40;99.90
843;DHT22;407;48.884;9.126;2022-08-23T16:41:15;32.20;99.90
843;DHT22;407;48.884;9.126;2022-08-23T16:43:41;31.30;99.90
843;DHT22;407;48.884;9.126;2022-08-23T16:46:08;31.20;99.90
843;DHT22;407;48.884;9.126;2022-08-23T16:48:33;31.20;99.90
843;DHT22;407;48.884;9.126;2022-08-23T16:50:59;31.20;99.90
843;DHT22;407;48.884;9.126;2022-08-23T16:53:25;31.10;99.90
843;DHT22;407;48.884;9.126;2022-08-23T16:55:52;31.10;99.90
843;DHT22;407;48.884;9.126;2022-08-23T16:58:18;31.00;99.90
843;DHT22;407;48.884;9.126;2022-08-23T17:00:45;30.90;99.90
843;DHT22;407;48.884;9.126;2022-08-23T17:03:11;30.80;99.90
843;DHT22;407;48.884;9.126;2022-08-23T17:05:38;30.90;99.90
843;DHT22;407;48.884;9.126;2022-08-23T17:08:04;31.00;99.90
843;DHT22;407;48.884;9.126;2022-08-23T17:10:29;30.90;99.90
843;DHT22;407;48.884;9.126;2022-08-23T17:12:56;30.60;99.90
843;DHT22;407;48.884;9.126;2022-08-23T17:15:29;30.50;99.90
843;DHT22;407;48.884;9.126;2022-08-23T17:17:55;30.50;99.90
843;DHT22;407;48.884;9.126;2022-08-23T17:20:23;30.60;99.90
843;DHT22;407;48.884;9.126;2022-08-23T17:22:50;30.50;99.90
843;DHT22;407;48.884;9.126;2022-08-23T17:25:16;30.60;99.90
843;DHT22;407;48.884;9.126;2022-08-23T17:27:43;30.60;99.90
843;DHT22;407;48.884;9.126;2022-08-23T17:30:10;30.50;99.90
843;DHT22;407;48.884;9.126;2022-08-23T17:32:37;30.40;99.90
843;DHT22;407;48.884;9.126;2022-08-23T17:35:05;30.40;99.90
843;DHT22;407;48.884;9.126;2022-08-23T17:37:32;30.50;99.90
843;DHT22;407;48.884;9.126;2022-08-23T17:39:59;30.30;99.90
843;DHT22;407;48.884;9.126;2022-08-23T17:42:24;30.10;99.90
843;DHT22;407;48.884;9.126;2022-08-23T17:44:50;30.10;99.90
843;DHT22;407;48.884;9.126;2022-08-23T17:47:17;30.00;99.90
843;DHT22;407;48.884;9.126;2022-08-23T17:49:44;29.80;99.90
843;DHT22;407;48.884;9.126;2022-08-23T17:52:10;29.80;99.90
843;DHT22;407;48.884;9.126;2022-08-23T17:54:37;29.70;99.90
843;DHT22;407;48.884;9.126;2022-08-23T17:57:05;29.50;99.90
843;DHT22;407;48.884;9.126;2022-08-23T17:59:31;29.30;99.90
843;DHT22;407;48.884;9.126;2022-08-23T18:01:56;29.20;99.90
843;DHT22;407;48.884;9.126;2022-08-23T18:04:22;29.00;99.90
843;DHT22;407;48.884;9.126;2022-08-23T18:06:47;28.80;99.90
843;DHT22;407;48.884;9.126;2022-08-23T18:09:13;28.70;99.90
843;DHT22;407;48.884;9.126;2022-08-23T18:11:39;28.60;99.90
843;DHT22;407;48.884;9.126;2022-08-23T18:14:06;28.50;99.90
843;DHT22;407;48.884;9.126;2022-08-23T18:16:33;28.50;99.90
843;DHT22;407;48.884;9.126;2022-08-23T18:18:59;28.40;99.90
843;DHT22;407;48.884;9.126;2022-08-23T18:21:25;28.30;99.90
843;DHT22;407;48.884;9.126;2022-08-23T18:23:54;28.10;99.90
843;DHT22;407;48.884;9.126;2022-08-23T18:26:21;28.00;99.90
843;DHT22;407;48.884;9.126;2022-08-23T18:29:06;27.80;99.90
843;DHT22;407;48.884;9.126;2022-08-23T18:31:32;27.60;99.90
843;DHT22;407;48.884;9.126;2022-08-23T18:33:59;27.40;99.90
843;DHT22;407;48.884;9.126;2022-08-23T18:36:26;27.20;99.90